Time;durP1;ratioP1;P1;durP2;ratioP2;P2;SDS_P1;SDS_P2;PMS_P1;PMS_P2;Temp;Humidity;BMP_temperature;BMP_pressure;BME280_temperature;BME280_humidity;BME280_pressure;Samples;Min_cycle;Max_cycle;Signal;HPM_P1;HPM_P2
2023/01/16 00:01:31;;;;;;;20.02;2.55;;;;;;;21.42;62.17;98155.41;7312693;19;128828;-39
2023/01/16 00:03:57;;;;;;;21.70;2.37;;;;;;;21.29;62.13;98128.19;7313366;19;129083;-38
2023/01/16 00:06:22;;;;;;;21.43;2.63;;;;;;;21.38;62.13;98148.09;7312817;19;129451;-40
2023/01/16 00:08:48;;;;;;;20.50;2.30;;;;;;;21.29;62.03;98130.81;7312970;19;129519;-39
2023/01/16 00:11:14;;;;;;;16.58;2.20;;;;;;;21.33;61.97;98146.00;7311315;19;129413;-41
2023/01/16 00:13:39;;;;;;;30.48;3.08;;;;;;;21.33;62.50;98145.16;7312376;19;129075;-38
2023/01/16 00:16:05;;;;;;;12.05;1.73;;;;;;;21.32;62.23;98149.56;7310985;19;130277;-39
2023/01/16 00:18:31;;;;;;;14.43;1.80;;;;;;;21.33;62.81;98151.22;7311592;19;130276;-40
2023/01/16 00:20:56;;;;;;;21.48;2.45;;;;;;;21.31;62.54;98149.75;7312756;19;128817;-40
2023/01/16 00:23:21;;;;;;;20.35;2.30;;;;;;;21.29;62.29;98149.94;7310239;19;129526;-41
2023/01/16 00:25:47;;;;;;;23.13;2.80;;;;;;;21.19;61.91;98138.88;7311867;19;129716;-40
2023/01/16 00:28:13;;;;;;;21.67;2.27;;;;;;;21.31;62.19;98142.72;7311662;19;129618;-39
2023/01/16 00:30:39;;;;;;;25.63;2.88;;;;;;;21.29;62.60;98139.47;7312479;19;129409;-40
2023/01/16 00:33:05;;;;;;;17.03;2.03;;;;;;;21.37;63.00;98138.63;7309076;19;129415;-40
2023/01/16 00:35:31;;;;;;;16.52;1.95;;;;;;;21.30;62.39;98135.88;7310895;19;129109;-40
2023/01/16 00:37:56;;;;;;;26.57;3.03;;;;;;;21.34;62.83;98120.66;7312509;19;129631;-40
2023/01/16 00:40:22;;;;;;;24.63;2.65;;;;;;;21.33;62.96;98125.09;7312564;19;129063;-41
2023/01/16 00:42:48;;;;;;;13.85;1.67;;;;;;;21.32;61.99;98123.44;7310271;19;129181;-37
2023/01/16 00:45:13;;;;;;;24.20;3.33;;;;;;;21.30;62.50;98103.69;7311541;19;129481;-40
2023/01/16 00:47:39;;;;;;;9.83;1.43;;;;;;;21.34;62.32;98116.25;7311311;19;130323;-40
2023/01/16 00:50:05;;;;;;;30.65;3.58;;;;;;;21.34;62.07;98111.00;7317369;19;129286;-42
2023/01/16 00:52:30;;;;;;;15.40;1.90;;;;;;;21.32;62.58;98115.59;7317249;19;129028;-40
2023/01/16 00:54:56;;;;;;;16.70;2.35;;;;;;;21.33;62.40;98109.41;7316860;19;129316;-41
2023/01/16 00:57:22;;;;;;;24.60;2.40;;;;;;;21.33;62.11;98105.97;7316579;19;129237;-41
2023/01/16 00:59:47;;;;;;;17.37;2.10;;;;;;;21.32;62.70;98114.81;7317659;19;128732;-38
2023/01/16 01:02:13;;;;;;;29.07;3.10;;;;;;;21.24;62.29;98088.69;7316402;19;129448;-42
2023/01/16 01:04:39;;;;;;;17.50;2.30;;;;;;;21.33;61.96;98103.34;7318171;19;130312;-38
2023/01/16 01:07:04;;;;;;;13.23;1.67;;;;;;;21.31;62.66;98111.38;7317254;19;129156;-40
2023/01/16 01:09:30;;;;;;;29.80;3.10;;;;;;;21.31;62.81;98105.31;7317727;19;128816;-39
2023/01/16 01:11:57;;;;;;;18.80;2.47;;;;;;;21.30;62.62;98106.31;7316126;19;129403;-38
2023/01/16 01:14:22;;;;;;;6.50;1.05;;;;;;;21.33;62.38;98111.19;7316756;19;130195;-41
2023/01/16 01:16:47;;;;;;;24.50;2.60;;;;;;;21.34;62.38;98110.19;7314698;19;130428;-40
2023/01/16 01:19:13;;;;;;;26.20;2.90;;;;;;;21.31;62.60;98106.13;7317223;19;129559;-38
2023/01/16 01:21:38;;;;;;;17.58;2.00;;;;;;;21.31;62.13;98100.91;7316682;19;129147;-40
2023/01/16 01:24:04;;;;;;;21.17;2.57;;;;;;;21.30;61.98;98106.31;7317278;19;129009;-40
2023/01/16 01:26:29;;;;;;;22.07;2.27;;;;;;;21.36;62.67;98113.44;7315424;19;129227;-40
2023/01/16 01:28:54;;;;;;;14.27;1.77;;;;;;;21.32;62.72;98101.72;7317645;19;129376;-38
2023/01/16 01:31:19;;;;;;;19.25;2.25;;;;;;;21.34;61.95;98100.56;7316558;19;129273;-40
2023/01/16 01:33:45;;;;;;;13.15;1.63;;;;;;;21.31;62.86;98100.91;7316124;19;129508;-40
2023/01/16 01:36:10;;;;;;;36.55;3.58;;;;;;;21.32;62.06;98102.53;7314024;19;129148;-38
2023/01/16 01:38:36;;;;;;;18.80;2.13;;;;;;;21.32;62.34;98096.50;7316695;19;129409;-39
2023/01/16 01:41:02;;;;;;;14.37;1.97;;;;;;;21.32;62.13;98086.06;7316872;19;129397;-38
2023/01/16 01:43:55;;;;;;;20.13;2.07;;;;;;;21.34;62.90;98090.09;7313197;19;128958;-39
2023/01/16 01:46:30;;;;;;;14.02;1.67;;;;;;;21.31;63.05;98074.78;7316557;19;131089;-39
2023/01/16 01:49:28;;;;;;;25.45;2.65;;;;;;;21.33;62.92;98071.97;7315741;19;129120;-38
2023/01/16 01:51:58;;;;;;;2.60;0.65;;;;;;;21.31;62.49;98072.16;7315824;19;128823;-36
2023/01/16 01:54:33;;;;;;;18.17;2.03;;;;;;;21.30;63.20;98062.69;7317240;19;130193;-39
2023/01/16 01:57:07;;;;;;;19.55;2.30;;;;;;;21.33;62.70;98062.34;7314750;19;129308;-39
2023/01/16 01:59:37;;;;;;;18.35;2.20;;;;;;;21.21;63.02;98049.84;7316988;19;130169;-41
2023/01/16 02:02:05;;;;;;;17.85;2.25;;;;;;;21.23;63.15;98048.69;7315742;19;129303;-40
2023/01/16 02:04:35;;;;;;;10.60;1.52;;;;;;;21.32;62.70;98055.47;7316609;19;129131;-41
2023/01/16 02:07:07;;;;;;;15.52;1.88;;;;;;;21.30;62.64;98054.84;7315991;19;129318;-41
2023/01/16 02:09:34;;;;;;;21.65;2.30;;;;;;;21.30;62.26;98054.84;7316623;19;129196;-38
2023/01/16 02:12:15;;;;;;;18.70;2.45;;;;;;;21.31;63.12;98047.81;7315643;19;129446;-39
2023/01/16 02:14:43;;;;;;;14.07;1.80;;;;;;;21.32;62.80;98045.00;7315997;19;130333;-40
2023/01/16 02:20:14;;;;;;;12.35;1.38;;;;;;;21.30;62.91;98041.78;7315990;19;129375;-40
2023/01/16 02:23:04;;;;;;;13.90;1.67;;;;;;;21.18;62.75;98019.66;7313947;19;129222;-39
2023/01/16 02:25:38;;;;;;;24.55;2.80;;;;;;;21.30;62.66;98023.50;7315532;19;129539;-39
2023/01/16 02:28:27;;;;;;;13.88;1.58;;;;;;;21.28;62.82;98012.38;7315806;19;130104;-39
2023/01/16 02:31:16;;;;;;;8.27;1.33;;;;;;;21.30;62.53;98014.81;7315699;19;129143;-40
2023/01/16 02:33:50;;;;;;;15.43;1.90;;;;;;;21.29;62.47;98010.56;7315276;19;128925;-41
2023/01/16 02:36:28;;;;;;;21.95;2.17;;;;;;;21.28;63.28;98012.38;7313498;19;129664;-39
2023/01/16 02:39:24;;;;;;;25.40;2.72;;;;;;;21.28;62.92;98006.34;7315336;19;129451;-40
2023/01/16 02:42:03;;;;;;;16.90;1.80;;;;;;;21.18;63.12;97985.69;7314773;19;128997;-41
2023/01/16 02:44:56;;;;;;;15.77;1.70;;;;;;;21.24;63.22;97990.19;7315122;19;129157;-41
2023/01/16 02:47:24;;;;;;;27.05;2.72;;;;;;;21.24;62.17;97998.03;7314812;19;129620;-40
2023/01/16 02:50:18;;;;;;;17.63;2.13;;;;;;;21.25;62.75;97997.06;7315052;19;129609;-40
2023/01/16 02:53:02;;;;;;;17.17;2.00;;;;;;;21.27;62.86;98005.53;7312778;19;128987;-40
2023/01/16 02:55:37;;;;;;;30.15;3.15;;;;;;;21.27;62.57;97992.44;7314443;19;129456;-37
2023/01/16 02:58:05;;;;;;;12.30;1.48;;;;;;;21.27;63.05;97987.22;7316090;19;129313;-39
2023/01/16 03:00:32;;;;;;;14.30;1.73;;;;;;;21.23;62.43;97972.06;7314220;19;129594;-39
2023/01/16 03:02:59;;;;;;;14.27;1.52;;;;;;;21.19;62.92;97965.59;7312040;19;128743;-39
2023/01/16 03:05:26;;;;;;;22.50;2.33;;;;;;;21.27;62.05;97978.59;7314299;19;129026;-39
2023/01/16 03:07:54;;;;;;;15.95;1.92;;;;;;;21.24;63.14;97969.28;7316254;19;130165;-41
2023/01/16 03:10:44;;;;;;;18.83;2.22;;;;;;;21.28;62.64;97974.97;7313832;19;129998;-40
2023/01/16 03:13:15;;;;;;;24.33;2.50;;;;;;;21.29;61.96;97966.97;7311563;19;129031;-41
2023/01/16 03:16:04;;;;;;;15.82;1.98;;;;;;;21.25;62.78;97955.25;7312770;19;129703;-38
2023/01/16 03:18:32;;;;;;;6.35;1.02;;;;;;;21.22;62.23;97954.78;7314561;19;130321;-40
2023/01/16 03:21:08;;;;;;;6.10;0.82;;;;;;;21.26;62.89;97967.31;7314607;19;129762;-42
2023/01/16 03:23:53;;;;;;;22.17;2.30;;;;;;;21.21;62.84;97948.75;7311873;19;128976;-40
2023/01/16 03:26:47;;;;;;;23.40;2.65;;;;;;;21.28;62.58;97960.13;7313191;19;129302;-40
2023/01/16 03:29:32;;;;;;;21.25;2.10;;;;;;;21.28;62.94;97952.28;7314684;19;129538;-39
2023/01/16 03:32:10;;;;;;;26.83;2.80;;;;;;;21.28;63.34;97957.50;7313232;19;130110;-41
2023/01/16 03:34:51;;;;;;;24.98;2.63;;;;;;;21.29;63.16;97950.44;7312897;19;129012;-39
2023/01/16 03:37:40;;;;;;;19.67;2.40;;;;;;;21.28;63.23;97946.22;7311078;19;129473;-39
2023/01/16 03:40:09;;;;;;;18.52;1.92;;;;;;;21.27;62.56;97942.00;7313883;19;129230;-40
2023/01/16 03:42:41;;;;;;;5.15;0.85;;;;;;;21.26;63.15;97945.59;7311555;19;130359;-41
2023/01/16 03:45:16;;;;;;;21.48;2.47;;;;;;;21.23;63.08;97940.72;7312999;19;129120;-41
2023/01/16 03:47:56;;;;;;;21.20;2.58;;;;;;;21.23;63.34;97931.09;7313214;19;128729;-39
2023/01/16 03:50:25;;;;;;;15.18;1.67;;;;;;;21.23;62.59;97928.47;7312378;19;129909;-40
2023/01/16 03:52:54;;;;;;;20.42;2.20;;;;;;;21.20;62.32;97921.00;7309715;19;130481;-39
2023/01/16 03:55:37;;;;;;;24.48;3.08;;;;;;;21.25;63.36;97918.66;7313526;19;129967;-38
2023/01/16 03:58:08;;;;;;;8.35;1.13;;;;;;;21.23;62.43;97915.41;7313369;19;128986;-39
2023/01/16 04:00:57;;;;;;;9.20;1.20;;;;;;;21.11;63.17;97893.28;7312765;19;129202;-39
2023/01/16 04:03:28;;;;;;;14.95;1.63;;;;;;;21.25;63.07;97908.19;7310582;19;130309;-40
2023/01/16 04:06:05;;;;;;;13.15;1.55;;;;;;;21.25;63.29;97902.97;7312513;19;129086;-42
2023/01/16 04:08:37;;;;;;;15.93;1.77;;;;;;;21.25;62.88;97900.34;7312337;19;129217;-40
2023/01/16 04:11:03;;;;;;;19.23;2.17;;;;;;;21.25;62.24;97902.16;7312671;19;129282;-40
2023/01/16 04:13:34;;;;;;;19.27;2.00;;;;;;;21.14;62.90;97869.41;7309067;19;129183;-41
2023/01/16 04:16:03;;;;;;;14.70;1.70;;;;;;;21.20;62.64;97883.59;7310958;19;129015;-41
2023/01/16 04:18:32;;;;;;;20.58;2.20;;;;;;;21.21;62.39;97888.63;7311943;19;129207;-40
2023/01/16 04:20:58;;;;;;;20.20;2.13;;;;;;;21.25;62.76;97881.25;7312871;19;129533;-39
2023/01/16 04:23:24;;;;;;;20.03;2.23;;;;;;;21.24;62.58;97883.03;7310580;19;129609;-40
2023/01/16 04:25:49;;;;;;;13.00;1.45;;;;;;;21.25;62.72;97882.06;7312015;19;128901;-40
2023/01/16 04:28:14;;;;;;;26.00;2.47;;;;;;;21.26;62.96;97883.69;7313205;19;129260;-40
2023/01/16 04:30:40;;;;;;;25.35;2.72;;;;;;;21.23;62.61;97870.97;7311848;19;129625;-40
2023/01/16 04:33:05;;;;;;;8.43;1.13;;;;;;;21.15;62.66;97855.38;7310503;19;129590;-38
2023/01/16 04:35:31;;;;;;;16.73;1.77;;;;;;;21.26;62.76;97852.31;7311562;19;129805;-37
2023/01/16 04:37:57;;;;;;;20.63;2.03;;;;;;;21.21;62.19;97856.44;7311425;19;129169;-40
2023/01/16 04:40:23;;;;;;;21.33;2.30;;;;;;;21.02;61.46;97844.72;7312642;19;129542;-39
2023/01/16 04:42:48;;;;;;;18.37;1.83;;;;;;;20.80;61.76;97849.94;7310118;19;131455;-41
2023/01/16 04:45:13;;;;;;;26.35;3.40;;;;;;;20.74;61.61;97848.88;7311707;19;129271;-38
2023/01/16 04:47:39;;;;;;;10.95;1.30;;;;;;;20.73;61.66;97847.25;7312660;19;129536;-40
2023/01/16 04:50:05;;;;;;;36.20;3.45;;;;;;;20.71;62.49;97841.38;7311432;19;129352;-40
2023/01/16 04:52:30;;;;;;;14.43;1.80;;;;;;;20.77;61.93;97831.03;7311266;19;130310;-38
2023/01/16 04:54:55;;;;;;;13.32;1.63;;;;;;;20.65;61.79;97831.66;7311203;19;129642;-42
2023/01/16 04:57:21;;;;;;;15.25;1.40;;;;;;;20.82;61.52;97842.75;7307715;19;131487;-38
2023/01/16 04:59:46;;;;;;;24.77;2.72;;;;;;;20.84;61.55;97846.00;7311501;19;129099;-39
2023/01/16 05:02:11;;;;;;;11.30;1.30;;;;;;;20.89;61.15;97844.47;7309789;19;129392;-41
2023/01/16 05:04:37;;;;;;;14.73;1.60;;;;;;;20.90;61.46;97840.88;7311998;19;128982;-40
2023/01/16 05:07:02;;;;;;;30.60;3.13;;;;;;;20.96;61.52;97839.38;7309986;19;129357;-39
2023/01/16 05:09:27;;;;;;;20.80;2.30;;;;;;;21.00;61.20;97836.25;7310044;19;130122;-39
2023/01/16 05:11:53;;;;;;;14.20;1.63;;;;;;;21.03;60.74;97827.22;7309615;19;129448;-39
2023/01/16 05:14:18;;;;;;;15.40;1.45;;;;;;;21.03;61.21;97825.44;7310899;19;129621;-39
2023/01/16 05:16:43;;;;;;;22.30;2.47;;;;;;;21.04;61.26;97821.81;7307540;19;130178;-40
2023/01/16 05:19:09;;;;;;;12.52;1.35;;;;;;;21.04;61.12;97811.38;7308595;19;129403;-39
2023/01/16 05:21:35;;;;;;;17.53;2.03;;;;;;;20.98;61.01;97824.34;7308650;19;130444;-38
2023/01/16 05:24:01;;;;;;;14.05;1.60;;;;;;;20.99;61.33;97812.94;7309411;19;129874;-41
2023/01/16 05:26:26;;;;;;;22.13;2.20;;;;;;;20.98;61.33;97806.06;7310715;19;128958;-40
2023/01/16 05:28:52;;;;;;;20.43;2.13;;;;;;;20.98;61.52;97803.44;7309699;19;129165;-41
2023/01/16 05:31:18;;;;;;;27.25;3.20;;;;;;;20.90;61.15;97795.66;7307633;19;129196;-38
2023/01/16 05:33:43;;;;;;;25.57;2.73;;;;;;;20.86;61.43;97791.81;7308103;19;130056;-41
2023/01/16 05:36:09;;;;;;;16.83;2.30;;;;;;;20.83;61.95;97787.72;7311258;19;128876;-41
2023/01/16 05:38:34;;;;;;;19.20;2.08;;;;;;;20.79;61.38;97781.25;7316515;19;130243;-39
2023/01/16 05:41:00;;;;;;;36.47;4.22;;;;;;;20.69;61.85;97754.59;7313180;19;130238;-38
2023/01/16 05:43:26;;;;;;;20.23;2.17;;;;;;;20.78;62.18;97763.94;7312295;19;130611;-41
2023/01/16 05:45:51;;;;;;;37.03;3.57;;;;;;;20.77;61.56;97757.13;7315509;19;129009;-40
2023/01/16 05:48:16;;;;;;;13.77;1.50;;;;;;;20.74;62.13;97757.47;7315687;19;130276;-40
2023/01/16 05:50:42;;;;;;;27.60;3.27;;;;;;;20.72;62.43;97759.44;7314831;19;129956;-37
2023/01/16 05:53:07;;;;;;;16.55;1.88;;;;;;;20.68;61.67;97745.94;7309843;19;129653;-40
2023/01/16 05:55:42;;;;;;;23.50;2.53;;;;;;;20.70;61.98;97750.97;7314729;19;130160;-39
2023/01/16 05:58:10;;;;;;;26.73;2.78;;;;;;;20.68;61.75;97750.34;7313794;19;130082;-41
2023/01/16 06:00:36;;;;;;;19.83;2.30;;;;;;;20.67;62.19;97754.78;7313893;19;129695;-40
2023/01/16 06:03:01;;;;;;;10.37;1.40;;;;;;;20.56;62.07;97733.50;7311408;19;129429;-40
2023/01/16 06:05:26;;;;;;;37.78;3.92;;;;;;;20.63;62.39;97745.66;7313190;19;128912;-38
2023/01/16 06:07:58;;;;;;;16.23;1.60;;;;;;;20.69;62.08;97739.72;7316958;19;130692;-39
2023/01/16 06:10:24;;;;;;;12.40;1.50;;;;;;;20.71;62.69;97744.75;7313837;19;129925;-39
2023/01/16 06:12:49;;;;;;;24.65;2.63;;;;;;;20.69;62.37;97734.50;7310928;19;128988;-37
2023/01/16 06:15:15;;;;;;;29.30;3.70;;;;;;;20.71;62.39;97731.69;7312158;19;129809;-39
2023/01/16 06:17:40;;;;;;;15.13;1.80;;;;;;;20.75;62.55;97727.75;7312457;19;129294;-39
2023/01/16 06:20:06;;;;;;;11.55;1.50;;;;;;;20.75;63.42;97730.38;7314207;19;132427;-42
2023/01/16 06:22:32;;;;;;;35.60;4.03;;;;;;;20.79;63.14;97720.38;7311929;19;129359;-40
2023/01/16 06:24:57;;;;;;;37.65;4.53;;;;;;;20.79;62.83;97734.25;7311981;19;130023;-38
2023/01/16 06:27:23;;;;;;;14.75;1.52;;;;;;;20.85;62.81;97723.06;7313260;19;129349;-38
2023/01/16 06:29:48;;;;;;;16.85;2.00;;;;;;;20.93;63.71;97724.78;7313563;19;130363;-40
2023/01/16 06:32:16;;;;;;;21.83;2.45;;;;;;;20.88;62.96;97722.72;7310559;19;129621;-40
2023/01/16 06:34:41;;;;;;;40.13;4.57;;;;;;;20.87;62.46;97700.22;7311324;19;130339;-38
2023/01/16 06:37:07;;;;;;;16.37;1.70;;;;;;;20.94;62.66;97714.13;7310463;19;129556;-42
2023/01/16 06:39:32;;;;;;;14.20;1.83;;;;;;;20.97;63.35;97706.00;7311649;19;129149;-39
2023/01/16 06:41:58;;;;;;;28.23;3.17;;;;;;;21.00;62.38;97694.38;7314192;19;129362;-42
2023/01/16 06:44:23;;;;;;;33.47;3.85;;;;;;;21.03;62.82;97704.44;7306681;19;130650;-40
2023/01/16 06:46:48;;;;;;;16.98;2.00;;;;;;;21.00;63.19;97705.63;7308739;19;129654;-38
2023/01/16 06:49:14;;;;;;;30.13;3.30;;;;;;;21.06;63.79;97698.84;7313287;19;129610;-40
2023/01/16 06:51:39;;;;;;;56.43;5.50;;;;;;;20.90;62.00;97681.56;7309861;19;129106;-39
2023/01/16 06:54:04;;;;;;;9.13;1.07;;;;;;;21.04;62.72;97709.47;7314925;19;128896;-37
2023/01/16 06:56:30;;;;;;;23.83;2.80;;;;;;;21.09;62.98;97709.75;7309963;19;130042;-41
2023/01/16 06:58:55;;;;;;;22.65;2.22;;;;;;;21.12;63.30;97698.94;7311067;19;129738;-40
2023/01/16 07:01:21;;;;;;;26.20;3.07;;;;;;;21.13;63.19;97703.19;7306882;19;129527;-37
2023/01/16 07:03:46;;;;;;;17.45;1.80;;;;;;;21.14;62.11;97704.78;7310611;19;130323;-38
2023/01/16 07:06:14;;;;;;;12.80;1.48;;;;;;;21.16;62.89;97699.38;7313123;19;129362;-40
2023/01/16 07:08:40;;;;;;;14.90;1.58;;;;;;;21.16;63.24;97700.19;7313258;19;129275;-41
2023/01/16 07:11:05;;;;;;;47.80;4.95;;;;;;;21.16;62.06;97689.75;7307776;19;131006;-39
2023/01/16 07:13:34;;;;;;;25.13;2.90;;;;;;;21.19;62.94;97694.59;7306447;19;129747;-39
2023/01/16 07:24:29;;;;;;;14.53;1.97;;;;;;;21.16;62.26;97671.44;7313449;19;128828;-36
2023/01/16 07:27:00;;;;;;;20.40;2.67;;;;;;;21.11;63.30;97659.91;7306289;19;129273;-40
2023/01/16 07:29:29;;;;;;;26.20;2.67;;;;;;;21.21;62.48;97682.16;7312100;19;130417;-37
2023/01/16 07:31:55;;;;;;;15.55;1.98;;;;;;;21.21;62.41;97679.56;7310548;19;129717;-39
2023/01/16 07:34:22;;;;;;;20.27;2.33;;;;;;;21.20;62.93;97680.56;7314170;19;129135;-40
2023/01/16 07:36:47;;;;;;;6.20;0.88;;;;;;;21.11;62.28;97681.66;7310112;19;130249;-40
2023/01/16 07:39:13;;;;;;;26.23;2.92;;;;;;;21.05;61.89;97685.00;7314326;19;130142;-41
2023/01/16 07:41:38;;;;;;;37.40;3.93;;;;;;;20.89;62.40;97672.09;7308470;19;129485;-37
2023/01/16 07:44:03;;;;;;;30.03;3.73;;;;;;;20.88;63.04;97683.53;7311635;19;129030;-40
2023/01/16 07:46:29;;;;;;;58.17;6.82;;;;;;;20.83;62.46;97692.88;7299193;19;130564;-39
2023/01/16 07:48:56;;;;;;;80.20;8.80;;;;;;;20.74;63.18;97679.13;7283217;19;130096;-38
2023/01/16 07:51:22;;;;;;;97.78;11.40;;;;;;;20.73;62.45;97687.94;7270502;19;130359;-34
2023/01/16 07:53:47;;;;;;;17.98;1.90;;;;;;;20.71;62.32;97679.47;7294436;19;129765;-39
2023/01/16 07:56:13;;;;;;;23.55;2.42;;;;;;;20.69;62.59;97676.25;7308843;19;129507;-38
2023/01/16 07:58:41;;;;;;;28.58;2.60;;;;;;;20.66;62.88;97663.53;7308683;19;130020;-40
2023/01/16 08:01:06;;;;;;;18.67;2.17;;;;;;;20.71;63.08;97658.59;7312792;19;129098;-38
2023/01/16 08:03:32;;;;;;;13.52;1.58;;;;;;;20.68;62.50;97646.72;7308183;19;129569;-40
2023/01/16 08:05:57;;;;;;;14.57;1.75;;;;;;;20.67;61.83;97631.22;7312299;19;130131;-37
2023/01/16 08:08:25;;;;;;;24.10;2.40;;;;;;;20.66;63.10;97624.38;7313129;19;129735;-41
2023/01/16 08:10:53;;;;;;;14.18;1.63;;;;;;;20.63;62.64;97624.75;7311775;19;128816;-40
2023/01/16 08:13:19;;;;;;;18.08;1.98;;;;;;;20.61;62.43;97617.09;7310782;19;128930;-39
2023/01/16 08:15:44;;;;;;;20.48;2.33;;;;;;;20.58;62.59;97614.03;7311987;19;129423;-40
2023/01/16 08:18:10;;;;;;;23.97;2.40;;;;;;;20.56;62.32;97608.22;7309883;19;129347;-38
2023/01/16 08:20:35;;;;;;;18.80;2.23;;;;;;;20.57;62.64;97591.53;7312936;19;128899;-36
2023/01/16 08:23:01;;;;;;;7.78;1.13;;;;;;;20.59;62.47;97586.94;7310374;19;129307;-40
2023/01/16 08:25:26;;;;;;;18.73;2.20;;;;;;;20.46;62.59;97565.91;7312343;19;130618;-40
2023/01/16 08:27:51;;;;;;;23.73;2.42;;;;;;;20.57;63.01;97579.31;7312673;19;129899;-40
2023/01/16 08:30:17;;;;;;;15.70;1.83;;;;;;;20.56;62.39;97571.66;7313157;19;128914;-40
2023/01/16 08:32:43;;;;;;;35.17;3.03;;;;;;;20.53;62.55;97564.16;7310122;19;129118;-40
2023/01/16 08:35:09;;;;;;;7.50;1.10;;;;;;;20.56;62.19;97558.59;7311648;19;130125;-38
2023/01/16 08:37:35;;;;;;;25.08;2.38;;;;;;;20.57;62.35;97557.59;7309682;19;129148;-39
2023/01/16 08:40:03;;;;;;;13.20;1.57;;;;;;;20.55;62.07;97549.97;7312594;19;128798;-38
2023/01/16 08:53:28;;;;;;;16.30;2.00;;;;;;;20.55;62.42;97510.78;7309137;19;129455;-40
2023/01/16 08:55:53;;;;;;;23.42;2.55;;;;;;;20.55;62.62;97507.38;7312079;19;129061;-38
2023/01/16 08:58:22;;;;;;;21.37;2.33;;;;;;;20.56;62.60;97506.41;7309046;19;129392;-39
2023/01/16 09:00:48;;;;;;;15.07;1.75;;;;;;;20.62;62.54;97508.25;7311774;19;128976;-40
2023/01/16 09:03:18;;;;;;;26.13;2.63;;;;;;;20.58;62.55;97505.22;7308762;19;129720;-41
2023/01/16 09:05:43;;;;;;;21.70;2.55;;;;;;;20.59;62.12;97496.38;7310521;19;129466;-38
2023/01/16 09:08:09;;;;;;;23.63;2.42;;;;;;;20.58;62.64;97499.16;7310374;19;129372;-40
2023/01/16 09:10:34;;;;;;;14.20;1.45;;;;;;;20.55;62.72;97487.31;7316194;19;129088;-40
2023/01/16 09:15:44;;;;;;;17.60;1.92;;;;;;;20.62;62.65;97482.16;7317723;19;128933;-38
2023/01/16 09:18:09;;;;;;;22.10;2.35;;;;;;;20.66;63.53;97478.97;7310496;19;129659;-40
2023/01/16 09:20:34;;;;;;;16.73;1.93;;;;;;;20.61;63.43;97470.88;7312787;19;129480;-40
2023/01/16 09:23:02;;;;;;;25.00;2.45;;;;;;;20.67;62.74;97469.34;7313900;19;131103;-40
2023/01/16 09:25:28;;;;;;;19.65;2.45;;;;;;;20.67;62.73;97456.31;7314423;19;130655;-41
2023/01/16 09:27:54;;;;;;;47.13;4.20;;;;;;;20.69;63.38;97451.72;7316910;19;129420;-39
2023/01/16 09:30:20;;;;;;;16.50;1.63;;;;;;;20.69;62.96;97447.28;7318555;19;129702;-40
2023/01/16 09:32:46;;;;;;;25.97;2.73;;;;;;;20.71;62.48;97444.47;7316600;19;129358;-41
2023/01/16 09:35:12;;;;;;;20.23;2.23;;;;;;;20.73;62.73;97442.50;7316119;19;130214;-35
2023/01/16 09:37:37;;;;;;;17.70;2.08;;;;;;;20.71;63.00;97439.25;7314990;19;129249;-40
2023/01/16 09:40:03;;;;;;;7.20;1.30;;;;;;;20.68;63.22;97429.19;7317161;19;128970;-40
2023/01/16 09:45:33;;;;;;;7.10;0.88;;;;;;;20.73;62.61;97421.59;7317246;19;129617;-40
2023/01/16 09:48:10;;;;;;;12.63;1.52;;;;;;;20.74;63.35;97412.78;7315980;19;129593;-38
2023/01/16 09:50:45;;;;;;;13.65;1.73;;;;;;;20.74;63.61;97404.97;7316245;19;129382;-40
2023/01/16 09:59:00;;;;;;;28.23;2.72;;;;;;;20.68;63.61;97384.81;7314646;19;130702;-40
2023/01/16 10:01:34;;;;;;;25.38;2.63;;;;;;;20.70;64.19;97374.97;7315511;19;129133;-38
2023/01/16 10:04:17;;;;;;;36.95;3.45;;;;;;;20.70;64.12;97369.75;7316052;19;129037;-38
2023/01/16 10:07:08;;;;;;;15.15;1.73;;;;;;;20.62;64.14;97346.41;7314998;19;129843;-40
2023/01/16 10:10:06;;;;;;;24.30;2.42;;;;;;;20.75;63.74;97356.94;7316830;19;129149;-38
2023/01/16 10:12:37;;;;;;;26.70;2.80;;;;;;;20.77;64.24;97349.75;7314317;19;129848;-41
2023/01/16 10:15:30;;;;;;;14.95;1.45;;;;;;;20.80;64.35;97341.53;7317062;19;128775;-39
2023/01/16 10:18:10;;;;;;;17.65;2.00;;;;;;;20.72;63.74;97334.63;7312311;19;129607;-38
2023/01/16 10:21:27;;;;;;;19.17;2.22;;;;;;;20.75;64.72;97330.84;7314749;19;129320;-40
2023/01/16 10:24:43;;;;;;;20.10;2.05;;;;;;;20.74;64.72;97314.34;7315514;19;128966;-37
2023/01/16 10:27:21;;;;;;;21.23;2.30;;;;;;;20.75;63.99;97317.78;7310638;19;129965;-38
2023/01/16 10:29:53;;;;;;;15.75;1.85;;;;;;;20.72;63.89;97299.88;7315877;19;130093;-36
2023/01/16 10:32:24;;;;;;;16.20;1.60;;;;;;;20.71;64.30;97306.09;7312470;19;129453;-40
2023/01/16 10:35:08;;;;;;;22.70;2.50;;;;;;;20.72;63.45;97294.66;7314900;19;129368;-39
2023/01/16 10:37:35;;;;;;;11.98;1.45;;;;;;;20.65;63.16;97273.75;7313680;19;129179;-40
2023/01/16 10:40:12;;;;;;;13.18;1.40;;;;;;;20.64;63.48;97263.47;7315263;19;129349;-41
2023/01/16 10:51:15;;;;;;;16.17;1.75;;;;;;;20.68;62.77;97235.97;7313708;19;129461;-41
2023/01/16 10:53:41;;;;;;;12.38;1.60;;;;;;;20.68;62.82;97220.31;7314101;19;130204;-40
2023/01/16 10:56:06;;;;;;;12.47;1.47;;;;;;;20.72;63.82;97213.72;7312541;19;129227;-40
2023/01/16 10:58:37;;;;;;;23.67;2.25;;;;;;;20.69;63.15;97201.84;7311653;19;129081;-39
2023/01/16 11:01:09;;;;;;;18.50;2.25;;;;;;;20.77;63.42;97203.53;7314204;19;129263;-40
2023/01/16 11:03:49;;;;;;;5.95;0.82;;;;;;;20.65;63.87;97192.00;7312888;19;129660;-40
2023/01/16 11:06:19;;;;;;;7.10;0.93;;;;;;;20.75;63.84;97197.69;7313859;19;129304;-39
2023/01/16 11:08:48;;;;;;;21.20;2.00;;;;;;;20.74;62.61;97196.06;7315250;19;129011;-39
2023/01/16 11:19:42;;;;;;;19.40;2.25;;;;;;;20.73;63.84;97166.53;7315939;19;129517;-38
2023/01/16 11:22:22;;;;;;;22.50;2.50;;;;;;;20.74;64.04;97152.47;7314147;19;129333;-40
2023/01/16 11:24:47;;;;;;;11.35;1.45;;;;;;;20.76;63.65;97147.06;7314674;19;129893;-40
2023/01/16 11:27:20;;;;;;;12.38;1.38;;;;;;;20.73;63.58;97144.84;7313667;19;129584;-40
2023/01/16 11:29:45;;;;;;;12.80;1.48;;;;;;;20.74;62.69;97130.81;7314248;19;129243;-39
2023/01/16 11:32:13;;;;;;;22.60;2.25;;;;;;;20.71;63.12;97136.38;7310900;19;129293;-39
2023/01/16 11:34:45;;;;;;;14.95;1.83;;;;;;;20.59;63.51;97101.41;7314852;19;130499;-39
2023/01/16 11:37:13;;;;;;;13.20;1.50;;;;;;;20.68;64.08;97106.25;7312897;19;129179;-41
2023/01/16 11:39:39;;;;;;;16.00;1.90;;;;;;;20.65;62.91;97105.84;7314004;19;129022;-40
2023/01/16 11:47:50;;;;;;;21.30;2.05;;;;;;;20.65;62.99;97091.00;7313992;19;129561;-40
2023/01/16 11:50:21;;;;;;;20.27;1.98;;;;;;;20.67;64.23;97086.38;7314266;19;129346;-40
2023/01/16 11:52:47;;;;;;;16.95;1.95;;;;;;;20.65;63.49;97069.28;7311352;19;129076;-39
2023/01/16 11:55:14;;;;;;;31.83;3.67;;;;;;;20.64;62.99;97041.59;7312412;19;129291;-41
2023/01/16 11:58:04;;;;;;;22.83;2.28;;;;;;;20.65;64.04;97048.41;7312307;19;129242;-41
2023/01/16 12:00:32;;;;;;;20.30;2.22;;;;;;;20.66;63.39;97050.00;7313890;19;129324;-41
2023/01/16 12:03:10;;;;;;;10.38;1.25;;;;;;;20.63;63.53;97040.78;7311314;19;131942;-39
2023/01/16 12:05:53;;;;;;;21.25;2.25;;;;;;;20.64;62.59;97036.38;7311756;19;130356;-39
2023/01/16 12:09:08;;;;;;;17.85;1.85;;;;;;;20.65;64.18;97023.13;7313487;19;128849;-39
2023/01/16 12:11:52;;;;;;;15.38;1.60;;;;;;;20.71;64.38;97034.56;7312512;19;130419;-41
2023/01/16 12:14:29;;;;;;;15.07;1.70;;;;;;;20.62;63.74;97007.03;7312618;19;129269;-40
2023/01/16 12:17:19;;;;;;;21.55;2.15;;;;;;;20.69;63.45;97028.75;7310728;19;129478;-37
2023/01/16 12:19:47;;;;;;;11.85;1.50;;;;;;;20.61;62.66;97008.81;7313024;19;129210;-40
2023/01/16 12:22:28;;;;;;;11.98;1.52;;;;;;;20.73;64.65;97024.72;7311136;19;129031;-40
2023/01/16 12:25:03;;;;;;;15.63;1.88;;;;;;;20.71;62.82;97016.28;7313719;19;130556;-40
2023/01/16 12:27:50;;;;;;;11.55;1.33;;;;;;;20.72;64.35;97007.47;7312691;19;130292;-39